Time;durP1;ratioP1;P1;durP2;ratioP2;P2;SDS_P1;SDS_P2;PMS_P1;PMS_P2;Temp;Humidity;BMP_temperature;BMP_pressure;BME280_temperature;BME280_humidity;BME280_pressure;Samples;Min_cycle;Max_cycle;Signal;HPM_P1;HPM_P2
2021/10/12 00:00:47;;;;;;;11.95;1.70;;;;;;;10.17;90.94;102621.56;4981825;28;20026;-88
2021/10/12 00:03:12;;;;;;;7.80;1.40;;;;;;;10.15;90.98;102624.19;4965814;28;20066;-87
2021/10/12 00:05:38;;;;;;;6.00;1.48;;;;;;;10.13;90.92;102612.88;4997070;28;20447;-88
2021/10/12 00:08:03;;;;;;;11.93;1.75;;;;;;;10.11;90.51;102616.38;4963816;28;20306;-87
2021/10/12 00:10:29;;;;;;;5.85;1.30;;;;;;;10.11;90.43;102618.97;4965219;28;20026;-88
2021/10/12 00:12:55;;;;;;;8.13;1.73;;;;;;;10.11;90.50;102622.47;4999608;28;20049;-88
2021/10/12 00:15:20;;;;;;;8.52;1.60;;;;;;;10.10;90.58;102633.84;4980562;28;20042;-88
2021/10/12 00:17:46;;;;;;;6.10;1.20;;;;;;;10.11;90.72;102622.47;4970725;28;20105;-88
2021/10/12 00:20:11;;;;;;;11.70;1.80;;;;;;;10.14;90.81;102622.44;4981217;28;20165;-88
2021/10/12 00:22:37;;;;;;;7.10;1.00;;;;;;;10.19;90.83;102622.41;4980700;28;20037;-88
2021/10/12 00:25:03;;;;;;;8.40;1.30;;;;;;;10.21;90.86;102611.91;4981584;28;20320;-88
2021/10/12 00:27:29;;;;;;;9.38;1.17;;;;;;;10.22;90.51;102614.50;4980713;28;20045;-88
2021/10/12 00:29:54;;;;;;;6.82;1.15;;;;;;;10.26;90.86;102620.56;4965078;28;20269;-88
2021/10/12 00:32:20;;;;;;;7.50;1.55;;;;;;;10.27;90.55;102628.41;4979452;28;20066;-88
2021/10/12 00:34:45;;;;;;;4.85;1.10;;;;;;;10.27;90.71;102627.56;4981486;28;20073;-88
2021/10/12 00:37:13;;;;;;;12.23;1.40;;;;;;;10.26;90.67;102620.56;4964889;28;20030;-88
2021/10/12 00:39:39;;;;;;;6.57;1.10;;;;;;;10.23;90.51;102624.09;4981240;28;20038;-89
2021/10/12 00:42:05;;;;;;;7.65;1.58;;;;;;;10.21;90.61;102612.78;4997860;28;20318;-88
2021/10/12 00:44:30;;;;;;;11.13;1.35;;;;;;;10.18;90.89;102618.91;4964507;28;20038;-88
2021/10/12 00:46:56;;;;;;;9.20;1.42;;;;;;;10.17;90.70;102624.19;4981054;28;20355;-88
2021/10/12 00:49:21;;;;;;;12.70;1.55;;;;;;;10.14;91.12;102627.69;4979581;28;20080;-88
2021/10/12 00:51:47;;;;;;;6.85;1.63;;;;;;;10.12;90.95;102615.50;4998964;28;20042;-88
2021/10/12 00:54:13;;;;;;;9.55;1.85;;;;;;;10.11;90.87;102616.38;4963728;28;20030;-88
2021/10/12 00:56:38;;;;;;;15.05;1.73;;;;;;;10.10;91.04;102620.75;4964542;28;20038;-89
2021/10/12 00:59:05;;;;;;;9.13;2.95;;;;;;;10.10;90.97;102619.88;4965375;28;20034;-89
2021/10/12 01:05:06;;;;;;;6.85;1.00;;;;;;;10.10;91.44;102610.28;4977740;28;20056;-88
2021/10/12 01:07:32;;;;;;;7.07;1.35;;;;;;;10.11;91.87;102609.38;4964921;28;20034;-88
2021/10/12 01:09:57;;;;;;;6.05;1.10;;;;;;;10.12;92.08;102592.78;4979686;28;20034;-89
2021/10/12 01:12:23;;;;;;;5.90;1.38;;;;;;;10.13;92.24;102585.81;4948394;28;20080;-88
2021/10/12 01:14:48;;;;;;;7.18;1.33;;;;;;;10.11;92.59;102583.19;4947541;28;20368;-88
2021/10/12 01:17:14;;;;;;;10.55;1.45;;;;;;;10.10;92.69;102584.09;4980260;28;20096;-88
2021/10/12 01:19:39;;;;;;;9.32;1.52;;;;;;;10.09;92.73;102576.25;4948208;28;20042;-88
2021/10/12 01:22:05;;;;;;;8.18;1.00;;;;;;;10.10;92.79;102575.38;4965071;28;20050;-88
2021/10/12 01:24:31;;;;;;;12.38;1.77;;;;;;;10.12;92.80;102568.38;4964257;28;20078;-88
2021/10/12 01:26:56;;;;;;;5.05;0.95;;;;;;;10.10;92.95;102560.53;4980766;28;20041;-88
2021/10/12 01:29:22;;;;;;;8.63;1.55;;;;;;;10.10;93.05;102557.06;4971775;28;20333;-88
2021/10/12 01:31:47;;;;;;;6.75;1.25;;;;;;;10.08;93.24;102559.69;4967725;28;20057;-88
2021/10/12 01:34:18;;;;;;;6.70;1.40;;;;;;;10.10;93.05;102560.53;4973316;28;20223;-88
2021/10/12 01:36:43;;;;;;;4.18;1.10;;;;;;;10.10;93.25;102551.81;4980440;28;20042;-88
2021/10/12 01:39:09;;;;;;;7.70;1.00;;;;;;;10.10;93.39;102557.91;4980677;28;20068;-88
2021/10/12 01:41:35;;;;;;;10.55;1.40;;;;;;;10.08;93.39;102545.75;4987974;28;20345;-88
2021/10/12 01:44:00;;;;;;;6.13;1.15;;;;;;;10.07;93.51;102544.84;4973153;28;20037;-88
2021/10/12 01:46:26;;;;;;;11.05;1.80;;;;;;;10.07;93.60;102534.38;5008145;28;20050;-88
2021/10/12 01:48:52;;;;;;;15.20;2.00;;;;;;;10.10;93.66;102521.25;4969267;28;20045;-88
2021/10/12 01:51:18;;;;;;;7.80;1.65;;;;;;;10.12;93.63;102502.94;4969470;28;20030;-88
2021/10/12 01:53:43;;;;;;;8.52;1.73;;;;;;;10.13;93.64;102486.31;4961820;28;20396;-88
2021/10/12 01:56:09;;;;;;;7.25;1.52;;;;;;;10.10;93.71;102479.38;4964472;28;20042;-88
2021/10/12 01:58:35;;;;;;;8.05;1.50;;;;;;;10.10;93.37;102489.00;4979603;28;20204;-88
2021/10/12 02:01:00;;;;;;;3.78;1.40;;;;;;;10.09;93.50;102487.25;4964581;28;20185;-88
2021/10/12 02:03:26;;;;;;;6.53;1.75;;;;;;;10.09;93.55;102489.88;4963765;28;20022;-88
2021/10/12 02:05:51;;;;;;;7.00;1.40;;;;;;;10.08;93.51;102499.47;4968207;28;20032;-88
2021/10/12 02:08:17;;;;;;;6.38;1.50;;;;;;;10.05;93.34;102489.03;4999732;28;20038;-88
2021/10/12 02:10:42;;;;;;;5.68;1.52;;;;;;;10.07;93.56;102491.63;4966857;28;20046;-88
2021/10/12 02:13:08;;;;;;;6.95;1.75;;;;;;;10.05;93.36;102481.19;5010187;28;20038;-88
2021/10/12 02:15:34;;;;;;;3.92;1.27;;;;;;;10.04;93.50;102484.69;4965214;28;20030;-88
2021/10/12 02:17:59;;;;;;;9.00;2.00;;;;;;;10.05;93.35;102475.09;4967504;28;20322;-88
2021/10/12 02:20:25;;;;;;;6.40;1.50;;;;;;;10.04;93.47;102468.09;4960323;28;20085;-88
2021/10/12 02:22:50;;;;;;;3.45;1.63;;;;;;;10.04;93.74;102465.50;4976374;28;20030;-88
2021/10/12 02:25:16;;;;;;;5.53;2.03;;;;;;;10.03;93.47;102466.41;4974093;28;20038;-88
2021/10/12 02:27:41;;;;;;;8.43;1.75;;;;;;;10.03;93.81;102466.41;4976595;28;20433;-88
2021/10/12 02:30:07;;;;;;;9.15;1.63;;;;;;;10.03;93.80;102459.41;4983468;28;20061;-88
2021/10/12 02:32:33;;;;;;;7.57;1.88;;;;;;;10.03;93.96;102454.16;4969526;28;20059;-87
2021/10/12 02:34:59;;;;;;;5.80;1.48;;;;;;;10.04;94.10;102455.03;4987009;28;20114;-87
2021/10/12 02:37:24;;;;;;;8.80;2.10;;;;;;;10.03;93.99;102461.16;4970606;28;20027;-87
2021/10/12 02:39:50;;;;;;;5.25;1.70;;;;;;;10.04;94.04;102461.16;4984546;28;20052;-88
2021/10/12 02:42:15;;;;;;;10.88;1.92;;;;;;;10.07;94.17;102461.09;4982703;28;20038;-88
2021/10/12 02:44:41;;;;;;;6.47;1.52;;;;;;;10.10;94.38;102449.72;4950622;28;20085;-88
2021/10/12 02:47:06;;;;;;;15.43;1.50;;;;;;;10.12;94.31;102448.81;4949961;28;20026;-88
2021/10/12 02:49:32;;;;;;;14.68;1.75;;;;;;;10.13;94.47;102449.66;4946874;28;20038;-88
2021/10/12 02:51:57;;;;;;;6.18;1.88;;;;;;;10.12;94.31;102445.34;4992169;28;20057;-88
2021/10/12 02:54:22;;;;;;;10.77;2.30;;;;;;;10.11;94.40;102435.72;4975455;28;20034;-88
2021/10/12 02:56:48;;;;;;;12.15;1.80;;;;;;;10.16;93.97;102439.16;4950838;28;20356;-88
2021/10/12 02:59:13;;;;;;;6.10;1.45;;;;;;;10.17;94.55;102430.44;4966948;28;20333;-88
2021/10/12 03:01:39;;;;;;;6.28;2.13;;;;;;;10.18;94.24;102435.63;4966344;28;20033;-88
2021/10/12 03:04:04;;;;;;;6.47;1.67;;;;;;;10.21;94.58;102428.63;4999522;28;20050;-87
2021/10/12 03:06:29;;;;;;;10.48;1.85;;;;;;;10.22;94.46;102425.97;4966072;28;20030;-88
2021/10/12 03:08:55;;;;;;;4.88;2.05;;;;;;;10.23;94.60;102414.63;4985463;28;20046;-88
2021/10/12 03:11:20;;;;;;;6.53;2.15;;;;;;;10.24;94.53;102400.66;4982128;28;20042;-88
2021/10/12 03:13:46;;;;;;;9.77;2.15;;;;;;;10.23;94.33;102388.44;4982819;28;20266;-87
2021/10/12 03:16:11;;;;;;;11.88;2.28;;;;;;;10.25;94.16;102385.81;4979099;28;20234;-88
2021/10/12 03:18:37;;;;;;;5.75;2.40;;;;;;;10.25;94.45;102393.66;4981312;28;20061;-88
2021/10/12 03:21:02;;;;;;;14.20;2.53;;;;;;;10.27;94.56;102389.25;4981978;28;20085;-88
2021/10/12 03:23:28;;;;;;;5.53;2.50;;;;;;;10.30;94.47;102381.38;4953693;28;20044;-88
2021/10/12 03:25:54;;;;;;;8.70;2.50;;;;;;;10.32;94.41;102374.38;5002102;28;20034;-88
2021/10/12 03:28:19;;;;;;;6.65;2.72;;;;;;;10.33;94.53;102368.25;4990918;28;20092;-87
2021/10/12 03:30:45;;;;;;;8.43;2.65;;;;;;;10.34;94.42;102375.22;4982526;28;20053;-87
2021/10/12 03:33:10;;;;;;;7.82;2.50;;;;;;;10.34;94.53;102373.47;4982285;28;20077;-87
2021/10/12 03:35:38;;;;;;;9.02;2.58;;;;;;;10.36;94.56;102366.44;4982062;28;20170;-88
2021/10/12 03:38:04;;;;;;;8.38;3.10;;;;;;;10.37;94.43;102362.94;4966981;28;20041;-88
2021/10/12 03:40:29;;;;;;;11.52;3.00;;;;;;;10.36;94.50;102363.81;4975839;28;20225;-87
2021/10/12 03:42:54;;;;;;;8.48;2.67;;;;;;;10.37;94.62;102372.56;5018492;28;20069;-88
2021/10/12 03:45:20;;;;;;;9.70;2.85;;;;;;;10.37;94.57;102356.84;4979899;28;20197;-88
2021/10/12 03:47:46;;;;;;;9.35;2.97;;;;;;;10.38;94.38;102353.34;4966257;28;20222;-87
2021/10/12 03:50:11;;;;;;;9.98;2.45;;;;;;;10.39;94.52;102349.84;4962628;28;20057;-87
2021/10/12 03:52:36;;;;;;;7.50;2.42;;;;;;;10.44;94.70;102352.38;4979267;28;20337;-88
2021/10/12 03:55:02;;;;;;;10.43;2.90;;;;;;;10.45;94.57;102344.50;4998174;28;20050;-87
2021/10/12 03:57:28;;;;;;;18.75;3.03;;;;;;;10.47;94.43;102342.72;4964990;28;20057;-87
2021/10/12 06:54:10;;;;;;;10.88;2.60;;;;;;;11.09;94.79;102207.94;4983804;28;20078;-87
2021/10/12 06:56:35;;;;;;;17.83;3.15;;;;;;;11.10;94.60;102210.53;4971148;28;20050;-87
2021/10/12 06:59:00;;;;;;;22.83;4.45;;;;;;;11.13;94.81;102209.56;4968634;28;20049;-87
2021/10/12 07:01:26;;;;;;;10.32;2.63;;;;;;;11.14;94.94;102213.94;4959166;28;20049;-87
2021/10/12 07:03:51;;;;;;;11.80;2.35;;;;;;;11.15;94.94;102218.28;4971841;28;20525;-87
2021/10/12 07:06:17;;;;;;;15.10;3.47;;;;;;;11.14;95.00;102230.53;4961845;28;20029;-87
2021/10/12 07:08:42;;;;;;;12.15;2.30;;;;;;;11.15;94.76;102228.75;4978425;28;20034;-87
2021/10/12 07:11:08;;;;;;;8.60;2.00;;;;;;;11.14;94.65;102229.66;4963858;28;20278;-87
2021/10/12 07:13:33;;;;;;;12.20;2.10;;;;;;;11.09;94.50;102232.38;4978058;28;20038;-88
2021/10/12 07:15:58;;;;;;;11.68;2.33;;;;;;;11.09;94.30;102218.41;4946948;28;20229;-87
2021/10/12 07:18:24;;;;;;;14.05;2.00;;;;;;;11.05;94.54;102212.38;4978430;28;20048;-88
2021/10/12 07:20:50;;;;;;;7.68;1.98;;;;;;;11.06;94.03;102218.47;4978629;28;20034;-88
2021/10/12 07:23:17;;;;;;;11.50;2.08;;;;;;;11.07;93.98;102215.81;4961682;28;20034;-88
2021/10/12 07:25:45;;;;;;;11.57;3.38;;;;;;;11.09;94.29;102213.16;4980472;28;20030;-87
2021/10/12 07:28:13;;;;;;;9.07;2.40;;;;;;;11.10;94.50;102205.28;4962890;28;20026;-88
2021/10/12 07:30:39;;;;;;;14.63;2.23;;;;;;;11.10;94.51;102197.41;4974810;28;20033;-87
2021/10/12 07:33:04;;;;;;;16.05;2.30;;;;;;;11.12;94.27;102198.25;4953387;28;20328;-87
2021/10/12 07:35:30;;;;;;;10.70;1.90;;;;;;;11.12;94.27;102200.84;4924160;28;20360;-88
2021/10/12 07:37:55;;;;;;;10.20;2.15;;;;;;;11.16;94.39;102206.91;4965858;28;20240;-87
2021/10/12 07:40:21;;;;;;;13.55;2.78;;;;;;;11.18;94.52;102199.88;4980124;28;20045;-88
2021/10/12 07:42:46;;;;;;;8.35;1.73;;;;;;;11.20;94.63;102200.69;4965311;28;20062;-87
2021/10/12 07:45:12;;;;;;;17.00;2.40;;;;;;;11.25;94.26;102195.34;4942161;28;20241;-88
2021/10/12 07:47:37;;;;;;;5.40;1.80;;;;;;;11.28;94.52;102190.06;4945544;28;20365;-87
2021/10/12 07:50:03;;;;;;;9.15;2.30;;;;;;;11.30;94.55;102189.09;4961722;28;20034;-87
2021/10/12 07:52:31;;;;;;;14.88;2.58;;;;;;;11.33;94.45;102183.81;4960256;28;20329;-87
2021/10/12 07:57:34;;;;;;;14.95;3.42;;;;;;;11.40;94.43;102178.41;4978468;28;20133;-87
2021/10/12 07:59:59;;;;;;;14.27;2.00;;;;;;;11.41;94.45;102178.38;4977306;28;20085;-88
2021/10/12 08:02:25;;;;;;;6.65;2.33;;;;;;;11.46;94.52;102178.25;4946979;28;20234;-87
2021/10/12 08:04:50;;;;;;;12.77;2.10;;;;;;;11.49;94.36;102186.06;4964410;28;20033;-87
2021/10/12 08:07:15;;;;;;;15.23;2.92;;;;;;;11.50;94.36;102179.94;4959697;28;20030;-88
2021/10/12 08:09:41;;;;;;;9.45;2.30;;;;;;;11.53;94.33;102185.97;4992101;28;20280;-87
2021/10/12 08:12:07;;;;;;;13.20;2.30;;;;;;;11.56;94.49;102192.91;4961397;28;20408;-88
2021/10/12 08:14:37;;;;;;;13.70;2.58;;;;;;;11.57;94.13;102186.75;4984785;28;20038;-87
2021/10/12 08:17:02;;;;;;;2.92;1.75;;;;;;;11.59;94.18;102187.59;4962831;28;20421;-87
2021/10/12 08:19:28;;;;;;;14.23;2.10;;;;;;;11.63;93.97;102177.88;4974841;28;20117;-87
2021/10/12 08:21:53;;;;;;;8.10;2.42;;;;;;;11.64;93.69;102171.72;4979383;28;20073;-88
2021/10/12 08:24:20;;;;;;;16.58;2.38;;;;;;;11.66;93.46;102175.16;4995196;28;20368;-87
2021/10/12 08:26:47;;;;;;;14.43;2.45;;;;;;;11.69;93.08;102165.47;4959320;28;20042;-88
2021/10/12 08:29:12;;;;;;;13.90;2.15;;;;;;;11.76;92.76;102174.06;4961462;28;20263;-88
2021/10/12 08:31:38;;;;;;;12.77;2.45;;;;;;;11.82;92.80;102167.78;4994264;28;20053;-88
2021/10/12 08:34:03;;;;;;;10.50;2.38;;;;;;;11.86;93.23;102162.44;4975475;28;20034;-88
2021/10/12 08:36:31;;;;;;;20.60;3.13;;;;;;;11.91;93.39;102164.97;4960452;28;20045;-88
2021/10/12 08:39:00;;;;;;;17.77;2.92;;;;;;;11.95;93.18;102155.25;4976051;28;20233;-87
2021/10/12 08:41:34;;;;;;;8.73;1.73;;;;;;;11.99;92.37;102154.25;4957509;28;20084;-88
2021/10/12 08:43:59;;;;;;;9.48;2.22;;;;;;;12.06;91.56;102147.97;4967720;28;20038;-88
2021/10/12 08:46:28;;;;;;;10.52;2.00;;;;;;;12.14;90.81;102155.66;4976780;28;20019;-88
2021/10/12 08:48:59;;;;;;;10.70;1.80;;;;;;;12.19;89.81;102153.78;4962388;28;20297;-88
2021/10/12 08:51:25;;;;;;;11.48;1.70;;;;;;;12.21;89.47;102155.44;4976751;28;20046;-88
2021/10/12 08:53:50;;;;;;;10.45;1.67;;;;;;;12.22;89.83;102157.16;4966769;28;20437;-88
2021/10/12 08:56:16;;;;;;;12.52;2.45;;;;;;;12.21;89.53;102159.84;4958109;28;20353;-87
2021/10/12 08:58:41;;;;;;;12.18;1.85;;;;;;;12.23;89.36;102156.25;4978849;28;20104;-88
2021/10/12 09:01:08;;;;;;;10.55;2.65;;;;;;;12.24;88.44;102147.50;4946698;28;20034;-88
2021/10/12 09:03:52;;;;;;;11.40;1.90;;;;;;;12.27;88.37;102157.91;4961278;28;20334;-88
2021/10/12 09:06:31;;;;;;;7.47;1.73;;;;;;;12.26;88.54;102157.94;4975120;28;20505;-87
2021/10/12 09:09:02;;;;;;;7.43;1.88;;;;;;;12.26;87.55;102156.19;4963147;28;20034;-88
2021/10/12 09:11:28;;;;;;;8.10;1.38;;;;;;;12.27;88.59;102151.78;4961159;28;20030;-88
2021/10/12 09:14:04;;;;;;;14.38;2.30;;;;;;;12.24;88.96;102152.75;4958072;28;20030;-88
2021/10/12 09:16:43;;;;;;;6.95;1.55;;;;;;;12.24;88.58;102150.13;4973316;28;20031;-88
2021/10/12 09:19:12;;;;;;;9.32;2.13;;;;;;;12.26;89.20;102152.69;4958757;28;20125;-87
2021/10/12 09:21:42;;;;;;;16.58;2.42;;;;;;;12.25;89.49;102153.59;4947885;28;20033;-88
2021/10/12 09:24:13;;;;;;;7.13;2.38;;;;;;;12.22;88.69;102146.66;4971855;28;20034;-88
2021/10/12 09:26:50;;;;;;;12.57;2.70;;;;;;;12.28;89.20;102137.78;4971175;28;20260;-87
2021/10/12 09:29:24;;;;;;;14.00;1.70;;;;;;;12.35;88.56;102139.31;4981396;28;20372;-88
2021/10/12 09:31:50;;;;;;;9.20;1.70;;;;;;;12.43;89.09;102131.22;4964927;28;20317;-87
2021/10/12 09:34:17;;;;;;;6.72;1.58;;;;;;;12.46;89.44;102137.25;4961647;28;20034;-87
2021/10/12 09:36:44;;;;;;;11.80;2.05;;;;;;;12.46;89.33;102137.25;4995117;28;20042;-88
2021/10/12 09:39:14;;;;;;;17.13;2.03;;;;;;;12.52;90.07;102132.75;4987408;28;20072;-88
2021/10/12 09:41:44;;;;;;;12.25;2.30;;;;;;;12.55;90.34;102130.00;4965454;28;20323;-87
2021/10/12 09:44:16;;;;;;;13.48;1.83;;;;;;;12.64;90.39;102122.75;4961721;28;20026;-87
2021/10/12 09:46:46;;;;;;;13.20;2.00;;;;;;;12.68;90.47;102131.41;4981311;28;20365;-88
2021/10/12 09:49:21;;;;;;;15.00;2.10;;;;;;;12.69;90.06;102127.84;4948607;28;20031;-87
2021/10/12 09:51:59;;;;;;;8.80;2.05;;;;;;;12.64;89.21;102119.22;4980705;28;20049;-88
2021/10/12 09:54:32;;;;;;;9.47;1.87;;;;;;;12.62;88.07;102118.41;4997334;28;20045;-87
2021/10/12 09:56:59;;;;;;;11.90;2.38;;;;;;;12.62;88.26;102121.03;4964765;28;20053;-88
2021/10/12 09:59:25;;;;;;;11.38;2.10;;;;;;;12.64;89.20;102108.72;4963362;28;20046;-87
2021/10/12 10:01:51;;;;;;;8.75;2.25;;;;;;;12.61;89.75;102119.34;4951167;28;20337;-88
2021/10/12 10:04:18;;;;;;;12.93;2.25;;;;;;;12.58;89.22;102115.00;4964758;28;20034;-87
2021/10/12 10:06:45;;;;;;;23.30;2.90;;;;;;;12.57;89.04;102123.81;4964005;28;20033;-88
2021/10/12 10:09:11;;;;;;;4.40;1.55;;;;;;;12.56;89.44;102108.94;4964342;28;20114;-88
2021/10/12 10:11:38;;;;;;;9.68;1.80;;;;;;;12.54;89.95;102123.91;4979353;28;20377;-87
2021/10/12 10:14:05;;;;;;;10.80;2.05;;;;;;;12.53;90.21;102116.91;4980320;28;20057;-88
2021/10/12 10:16:31;;;;;;;14.25;2.05;;;;;;;12.52;89.73;102130.97;4979797;28;20037;-88
2021/10/12 10:18:56;;;;;;;12.60;2.25;;;;;;;12.51;89.59;102136.25;4962447;28;20290;-88
2021/10/12 10:21:22;;;;;;;8.90;2.53;;;;;;;12.48;89.58;102140.69;4979277;28;20035;-87
2021/10/12 10:24:01;;;;;;;9.75;1.92;;;;;;;12.42;89.15;102135.59;4947750;28;20097;-87
2021/10/12 10:26:32;;;;;;;7.38;1.70;;;;;;;12.41;89.53;102123.38;4981511;28;20105;-88
2021/10/12 10:29:17;;;;;;;13.25;1.70;;;;;;;12.41;90.08;102122.53;4964373;28;20050;-88
2021/10/12 10:31:42;;;;;;;14.63;2.30;;;;;;;12.44;90.40;102127.69;4979259;28;20034;-88
2021/10/12 10:34:26;;;;;;;13.98;2.35;;;;;;;12.51;90.56;102120.50;4960278;28;20341;-88
2021/10/12 10:37:29;;;;;;;11.32;2.95;;;;;;;12.52;90.47;102120.47;4996893;28;20311;-88
2021/10/12 10:40:35;;;;;;;9.18;1.45;;;;;;;12.50;90.47;102117.00;4991735;28;20049;-87
2021/10/12 10:43:11;;;;;;;6.38;0.90;;;;;;;12.48;89.90;102117.06;4947414;28;20310;-87
2021/10/12 10:45:43;;;;;;;7.15;1.67;;;;;;;12.51;89.88;102115.25;4961037;28;20121;-87
2021/10/12 10:48:10;;;;;;;11.48;1.48;;;;;;;12.53;90.19;102108.16;4963634;28;20118;-88
2021/10/12 10:50:36;;;;;;;12.18;1.60;;;;;;;12.56;90.70;102105.47;4976376;28;20361;-88
2021/10/12 10:53:03;;;;;;;19.77;2.53;;;;;;;12.58;90.54;102099.25;4974871;28;20045;-87
2021/10/12 10:55:32;;;;;;;15.05;1.67;;;;;;;12.64;90.92;102098.19;4950586;28;20074;-87
2021/10/12 10:58:01;;;;;;;10.57;1.48;;;;;;;12.70;90.35;102105.94;4962464;28;20035;-87
2021/10/12 11:00:27;;;;;;;13.02;1.63;;;;;;;12.81;90.40;102100.34;4996282;28;20026;-87
2021/10/12 11:02:54;;;;;;;6.20;1.63;;;;;;;12.90;89.95;102107.09;4963479;28;20022;-87
2021/10/12 11:05:32;;;;;;;6.75;1.58;;;;;;;12.94;89.19;102103.47;4963000;28;20350;-88
2021/10/12 11:08:07;;;;;;;3.33;1.05;;;;;;;12.92;89.04;102114.03;4973051;28;20030;-88
2021/10/12 11:10:32;;;;;;;5.55;0.80;;;;;;;12.87;89.32;102116.78;4995740;28;20042;-88
2021/10/12 11:12:58;;;;;;;5.00;0.73;;;;;;;12.78;89.36;102124.94;4979478;28;20034;-88
2021/10/12 11:15:23;;;;;;;5.65;0.80;;;;;;;12.68;89.17;102121.75;4964657;28;20231;-88
2021/10/12 11:18:07;;;;;;;4.22;0.95;;;;;;;12.66;90.13;102120.03;4977120;28;20117;-88
2021/10/12 11:20:40;;;;;;;10.60;1.17;;;;;;;12.61;90.16;102108.81;4969198;28;20276;-88
2021/10/12 11:23:06;;;;;;;4.68;0.50;;;;;;;12.60;90.36;102113.19;4980138;28;20029;-88
2021/10/12 11:25:31;;;;;;;4.57;0.50;;;;;;;12.58;90.19;102108.91;4979752;28;20046;-88
2021/10/12 11:28:05;;;;;;;2.53;0.68;;;;;;;12.60;90.54;102110.56;4957659;28;20097;-88
2021/10/12 11:30:34;;;;;;;4.68;0.65;;;;;;;12.58;90.03;102114.16;4963072;28;20321;-88
2021/10/12 11:33:02;;;;;;;4.63;0.75;;;;;;;12.61;90.12;102114.09;4976609;28;20045;-88
2021/10/12 11:35:35;;;;;;;1.75;0.40;;;;;;;12.61;89.88;102112.31;4968212;28;20225;-87
2021/10/12 11:38:01;;;;;;;3.58;0.50;;;;;;;12.64;89.83;102113.97;4963536;28;20077;-87
2021/10/12 11:40:26;;;;;;;6.15;0.55;;;;;;;12.70;90.14;102118.19;4963570;28;20109;-88
2021/10/12 11:42:52;;;;;;;4.68;0.57;;;;;;;12.68;89.83;102120.88;4947739;28;20085;-87
2021/10/12 11:45:18;;;;;;;1.85;0.60;;;;;;;12.66;89.71;102123.56;4964955;28;20022;-87
2021/10/12 11:47:43;;;;;;;1.52;0.50;;;;;;;12.62;89.68;102124.53;4966373;28;20331;-88
2021/10/12 11:50:13;;;;;;;1.27;0.50;;;;;;;12.55;89.06;102133.53;4963361;28;20030;-88
2021/10/12 11:52:39;;;;;;;3.00;0.40;;;;;;;12.49;88.41;102126.63;4963408;28;20054;-87
2021/10/12 11:55:05;;;;;;;1.38;0.40;;;;;;;12.49;89.17;102131.03;4950339;28;20403;-88
2021/10/12 11:57:30;;;;;;;1.63;0.30;;;;;;;12.43;89.19;102126.81;4978783;28;20392;-88
2021/10/12 11:59:56;;;;;;;2.33;0.60;;;;;;;12.43;89.37;102124.19;4960256;28;20031;-88
2021/10/12 12:02:24;;;;;;;1.58;0.73;;;;;;;12.40;89.58;102121.66;4946377;28;20040;-88
2021/10/12 12:04:53;;;;;;;2.53;0.45;;;;;;;12.41;89.66;102122.53;4964096;28;20069;-87
2021/10/12 12:07:18;;;;;;;2.17;0.98;;;;;;;12.41;89.38;102122.53;4962866;28;20034;-88
2021/10/12 12:09:45;;;;;;;0.73;0.57;;;;;;;12.46;89.87;102124.13;4963288;28;20223;-87
2021/10/12 12:12:10;;;;;;;4.80;0.98;;;;;;;12.51;90.25;102131.00;4962483;28;20033;-88
2021/10/12 12:14:36;;;;;;;2.58;1.02;;;;;;;12.50;90.03;102135.41;4958811;28;20057;-87
2021/10/12 12:17:06;;;;;;;4.03;0.73;;;;;;;12.45;89.80;102129.41;4946768;28;20026;-87
2021/10/12 12:20:03;;;;;;;2.03;0.73;;;;;;;12.38;89.13;102125.22;4959394;28;20126;-88
2021/10/12 12:22:30;;;;;;;3.70;0.80;;;;;;;12.29;88.93;102127.19;4960748;28;20069;-88
2021/10/12 12:25:14;;;;;;;0.82;0.50;;;;;;;12.27;89.44;102125.53;4964565;28;20353;-87
2021/10/12 12:28:01;;;;;;;2.88;0.90;;;;;;;12.25;90.00;102130.81;4963974;28;20034;-88
2021/10/12 12:30:46;;;;;;;4.30;0.90;;;;;;;12.24;90.44;102122.97;4954845;28;20114;-88
2021/10/12 12:33:11;;;;;;;4.85;1.88;;;;;;;12.19;89.89;102122.25;4950708;28;20031;-88
2021/10/12 12:35:39;;;;;;;2.92;0.80;;;;;;;12.15;89.66;102126.72;4977354;28;20034;-87
2021/10/12 12:38:04;;;;;;;1.30;0.60;;;;;;;12.17;89.77;102131.91;4965052;28;20333;-87
2021/10/12 12:40:30;;;;;;;3.45;0.77;;;;;;;12.20;89.95;102130.06;4979362;28;20044;-87
2021/10/12 12:42:56;;;;;;;4.40;0.95;;;;;;;12.26;90.12;102127.31;4965946;28;20344;-88
2021/10/12 12:45:22;;;;;;;2.72;0.90;;;;;;;12.34;89.91;102126.22;4983098;28;20034;-88
2021/10/12 12:47:58;;;;;;;4.60;0.90;;;;;;;12.40;89.60;102124.28;4983806;28;20353;-87
2021/10/12 12:50:30;;;;;;;2.00;0.80;;;;;;;12.42;88.38;102129.50;4970218;28;20037;-87
2021/10/12 12:52:57;;;;;;;1.85;0.75;;;;;;;12.44;87.27;102120.69;4964939;28;20065;-88
2021/10/12 12:55:40;;;;;;;3.30;0.90;;;;;;;12.48;86.93;102124.94;4979720;28;20073;-87
2021/10/12 12:58:06;;;;;;;2.30;0.63;;;;;;;12.52;86.84;102122.22;4965967;28;20037;-88
2021/10/12 13:00:32;;;;;;;7.15;0.90;;;;;;;12.51;85.33;102107.34;4985065;28;20057;-87
2021/10/12 13:02:58;;;;;;;1.05;0.70;;;;;;;12.53;85.86;102116.91;4972495;28;20045;-87
2021/10/12 13:05:25;;;;;;;2.60;1.08;;;;;;;12.55;86.53;102122.13;4961830;28;20022;-87
2021/10/12 13:07:50;;;;;;;1.73;0.70;;;;;;;12.54;86.34;102125.69;4978083;28;20038;-87
2021/10/12 13:10:16;;;;;;;3.80;0.90;;;;;;;12.53;86.57;102126.56;4977894;28;20038;-87
2021/10/12 13:12:46;;;;;;;5.93;0.90;;;;;;;12.46;85.83;102139.88;4945134;28;20034;-87
2021/10/12 13:15:12;;;;;;;6.35;1.10;;;;;;;12.41;85.02;102138.28;4978395;28;20034;-87
2021/10/12 13:17:37;;;;;;;6.38;0.90;;;;;;;12.33;84.41;102138.47;4974986;28;20341;-88
2021/10/12 13:20:06;;;;;;;4.50;0.95;;;;;;;12.31;84.12;102134.19;4994235;28;20099;-87
2021/10/12 13:22:32;;;;;;;5.93;1.67;;;;;;;12.37;85.33;102137.53;4966110;28;20042;-87
2021/10/12 13:24:57;;;;;;;3.47;1.10;;;;;;;12.38;83.98;102133.13;4962263;28;20407;-87
2021/10/12 13:27:23;;;;;;;3.42;0.80;;;;;;;12.40;84.34;102141.81;4942435;28;20029;-87
2021/10/12 13:29:48;;;;;;;5.00;0.90;;;;;;;12.38;84.11;102141.84;4975361;28;20038;-87
2021/10/12 13:32:14;;;;;;;8.63;1.10;;;;;;;12.37;83.94;102150.66;4961711;28;20356;-87
2021/10/12 13:34:39;;;;;;;3.72;0.80;;;;;;;12.36;83.52;102156.78;4966190;28;20041;-87
2021/10/12 13:37:05;;;;;;;7.30;1.48;;;;;;;12.34;82.19;102147.25;4967588;28;20037;-87
2021/10/12 13:39:31;;;;;;;7.45;1.08;;;;;;;12.37;82.78;102153.28;4963342;28;20229;-87
2021/10/12 13:41:57;;;;;;;3.22;0.90;;;;;;;12.41;82.90;102144.41;4964461;28;20365;-87
2021/10/12 13:44:23;;;;;;;7.80;1.30;;;;;;;12.46;81.74;102149.50;4947925;28;20030;-87
2021/10/12 13:46:49;;;;;;;7.53;1.75;;;;;;;12.50;80.79;102156.44;4962263;28;20045;-87
2021/10/12 13:49:14;;;;;;;8.68;1.10;;;;;;;12.52;80.88;102161.66;4976212;28;20254;-87
2021/10/12 13:51:39;;;;;;;7.85;0.90;;;;;;;12.44;77.13;102154.84;4942178;28;20034;-87
2021/10/12 13:54:05;;;;;;;7.63;0.80;;;;;;;12.41;75.53;102159.31;4974786;28;20058;-87
2021/10/12 13:56:30;;;;;;;4.25;0.80;;;;;;;12.40;76.56;102160.19;4962535;28;20061;-87
2021/10/12 13:58:56;;;;;;;3.28;0.77;;;;;;;12.35;75.52;102168.22;4960923;28;20369;-87
2021/10/12 14:01:22;;;;;;;4.90;0.90;;;;;;;12.30;74.16;102172.72;4941745;28;20031;-87
2021/10/12 14:03:48;;;;;;;4.55;0.80;;;;;;;12.30;74.13;102162.22;4991338;28;20306;-87
2021/10/12 14:06:14;;;;;;;6.60;0.70;;;;;;;12.35;75.12;102177.84;4961394;28;20040;-87
2021/10/12 14:08:40;;;;;;;3.33;0.68;;;;;;;12.40;74.35;102184.69;4947191;28;20030;-87
2021/10/12 14:11:06;;;;;;;6.68;0.90;;;;;;;12.38;72.47;102181.25;4966288;28;20081;-87
2021/10/12 14:13:31;;;;;;;3.45;0.60;;;;;;;12.33;71.72;102180.50;4962700;28;20022;-87
2021/10/12 14:15:57;;;;;;;1.85;0.57;;;;;;;12.25;71.38;102185.13;4965169;28;20333;-87
2021/10/12 14:18:23;;;;;;;7.53;0.88;;;;;;;12.16;71.87;102188.84;4964857;28;20375;-87
2021/10/12 14:20:49;;;;;;;3.90;0.95;;;;;;;12.09;70.90;102184.66;4984317;28;20045;-87
2021/10/12 14:23:16;;;;;;;2.67;0.60;;;;;;;12.06;70.00;102193.47;4965149;28;20651;-87